Time;durP1;ratioP1;P1;durP2;ratioP2;P2;SDS_P1;SDS_P2;PMS_P1;PMS_P2;Temp;Humidity;BMP_temperature;BMP_pressure;BME280_temperature;BME280_humidity;BME280_pressure;Samples;Min_cycle;Max_cycle;Signal;HPM_P1;HPM_P2
2021/07/01 00:02:20;;;;;;;3.37;0.80;;;;;;;18.98;59.07;97609.47;8251131;28;20207;-68
2021/07/01 00:06:24;;;;;;;5.13;1.00;;;;;;;18.82;59.34;97609.13;8251865;28;20495;-68
2021/07/01 00:10:28;;;;;;;1.50;0.60;;;;;;;18.91;58.96;97613.59;8251883;28;20230;-71
2021/07/01 00:14:30;;;;;;;2.30;0.70;;;;;;;18.70;59.50;97617.00;8251619;28;20317;-68
2021/07/01 00:18:33;;;;;;;1.47;0.70;;;;;;;18.60;60.08;97615.28;8251707;28;20497;-68
2021/07/01 00:22:38;;;;;;;1.47;0.90;;;;;;;18.61;59.94;97609.09;8251333;28;20210;-69
2021/07/01 00:26:40;;;;;;;2.60;1.00;;;;;;;18.53;60.43;97618.41;8252225;28;20206;-68
2021/07/01 00:30:43;;;;;;;1.67;1.00;;;;;;;18.49;61.03;97614.38;8251448;28;20207;-68
2021/07/01 00:34:46;;;;;;;3.03;1.30;;;;;;;18.32;61.39;97604.44;8251031;28;20341;-68
2021/07/01 00:38:50;;;;;;;1.77;1.10;;;;;;;18.46;60.94;97609.38;8251050;28;20524;-68
2021/07/01 00:42:53;;;;;;;2.00;1.40;;;;;;;18.43;61.63;97604.41;8249951;28;20216;-68
2021/07/01 00:46:56;;;;;;;3.00;1.40;;;;;;;18.43;61.96;97608.78;8250016;28;20226;-68
2021/07/01 00:50:59;;;;;;;1.90;1.40;;;;;;;18.40;62.52;97607.25;8250010;28;20417;-68
2021/07/01 00:55:04;;;;;;;1.80;1.40;;;;;;;18.36;63.35;97609.31;8249419;28;20238;-68
2021/07/01 00:59:07;;;;;;;1.77;1.50;;;;;;;18.32;63.39;97613.13;8249363;28;20213;-68
2021/07/01 01:03:10;;;;;;;6.40;1.77;;;;;;;18.11;63.93;97612.25;8249847;28;20291;-68
2021/07/01 01:07:13;;;;;;;3.10;1.60;;;;;;;18.23;63.32;97615.69;8249511;28;20338;-68
2021/07/01 01:11:17;;;;;;;2.67;1.20;;;;;;;18.46;62.90;97619.03;8249741;28;20535;-68
2021/07/01 01:15:20;;;;;;;3.63;1.70;;;;;;;18.49;62.45;97618.78;8249544;28;20393;-68
2021/07/01 01:19:23;;;;;;;1.30;1.20;;;;;;;18.54;62.16;97616.59;8249560;28;20214;-68
2021/07/01 01:23:28;;;;;;;4.53;1.20;;;;;;;18.52;62.04;97614.13;8249715;28;20209;-68
2021/07/01 01:27:30;;;;;;;2.37;1.10;;;;;;;18.39;62.70;97617.88;8249518;28;20203;-68
2021/07/01 01:31:36;;;;;;;3.80;1.20;;;;;;;18.40;62.43;97622.16;8249716;28;20388;-68
2021/07/01 01:35:40;;;;;;;0.80;0.80;;;;;;;18.35;63.49;97618.13;8252662;28;20237;-68
2021/07/01 01:39:48;;;;;;;0.87;0.87;;;;;;;18.45;62.36;97614.75;8254908;28;20205;-68
2021/07/01 01:43:50;;;;;;;1.67;0.70;;;;;;;18.37;62.96;97620.59;8254844;28;20217;-68
2021/07/01 01:47:53;;;;;;;1.40;0.90;;;;;;;18.27;63.00;97622.31;8254730;28;20493;-68
2021/07/01 01:51:56;;;;;;;0.67;0.67;;;;;;;18.29;62.93;97616.00;8254637;28;20203;-68
2021/07/01 01:56:00;;;;;;;1.13;0.80;;;;;;;18.30;62.96;97619.47;8254467;28;20226;-68
2021/07/01 02:00:04;;;;;;;0.83;0.73;;;;;;;18.28;63.04;97622.22;8254652;28;20206;-68
2021/07/01 02:04:06;;;;;;;0.77;0.77;;;;;;;18.29;62.63;97615.16;8254485;28;20507;-68
2021/07/01 02:08:10;;;;;;;0.67;0.67;;;;;;;18.17;63.50;97623.06;8254506;28;20234;-69
2021/07/01 02:12:14;;;;;;;0.60;0.60;;;;;;;18.24;62.51;97626.03;8253892;28;20238;-68
2021/07/01 02:16:16;;;;;;;2.30;0.70;;;;;;;18.26;62.74;97618.88;8253735;28;20226;-69
2021/07/01 02:20:21;;;;;;;2.40;0.77;;;;;;;18.31;62.45;97621.94;8253588;28;20398;-68
2021/07/01 02:24:24;;;;;;;1.33;0.83;;;;;;;18.27;63.05;97619.72;8252838;28;20207;-68
2021/07/01 02:28:28;;;;;;;1.00;0.70;;;;;;;18.20;63.42;97619.38;8253349;28;20202;-68
2021/07/01 02:32:31;;;;;;;2.60;0.60;;;;;;;18.21;63.67;97618.41;8253249;28;20210;-68
2021/07/01 02:36:33;;;;;;;0.70;0.50;;;;;;;18.19;63.66;97624.75;8252938;28;20281;-69
2021/07/01 02:40:36;;;;;;;1.70;0.60;;;;;;;18.18;63.29;97623.91;8252560;28;20203;-69
2021/07/01 02:44:40;;;;;;;0.70;0.50;;;;;;;18.24;63.31;97625.19;8252108;28;20206;-68
2021/07/01 02:48:43;;;;;;;0.83;0.40;;;;;;;18.11;63.92;97628.00;8251475;28;20543;-68
2021/07/01 02:52:46;;;;;;;3.93;0.47;;;;;;;18.03;63.96;97638.22;8252115;28;20206;-69
2021/07/01 02:56:49;;;;;;;2.13;0.47;;;;;;;18.08;63.83;97636.91;8251653;28;20249;-69
2021/07/01 03:00:53;;;;;;;1.27;0.60;;;;;;;18.11;63.78;97641.09;8251573;28;20209;-71
2021/07/01 03:04:56;;;;;;;3.53;0.50;;;;;;;18.01;64.42;97640.13;8251194;28;20213;-71
2021/07/01 03:08:59;;;;;;;2.70;0.60;;;;;;;18.01;64.51;97640.13;8251185;28;20202;-71
2021/07/01 03:13:02;;;;;;;0.57;0.50;;;;;;;17.97;64.35;97635.16;8251602;28;20239;-71
2021/07/01 03:17:06;;;;;;;2.40;0.70;;;;;;;18.01;63.98;97640.13;8251011;28;20559;-71
2021/07/01 03:21:09;;;;;;;0.90;0.50;;;;;;;17.99;64.48;97640.25;8251154;28;20388;-69
2021/07/01 03:25:12;;;;;;;2.30;0.50;;;;;;;18.03;64.45;97640.84;8250785;28;20206;-69
2021/07/01 03:29:15;;;;;;;0.77;0.43;;;;;;;17.96;64.01;97643.16;8250781;28;20215;-68
2021/07/01 03:33:19;;;;;;;1.53;0.50;;;;;;;18.10;63.68;97648.09;8250856;28;20213;-69
2021/07/01 03:37:22;;;;;;;1.13;0.50;;;;;;;18.02;64.18;97647.88;8250358;28;20544;-69
2021/07/01 03:41:25;;;;;;;2.70;0.60;;;;;;;18.06;63.66;97648.47;8250329;28;20202;-69
2021/07/01 03:45:28;;;;;;;2.97;0.60;;;;;;;18.01;63.91;97648.00;8250797;28;20250;-69
2021/07/01 03:49:32;;;;;;;3.17;0.60;;;;;;;17.89;64.74;97652.44;8251084;28;20214;-69
2021/07/01 03:53:35;;;;;;;1.40;0.70;;;;;;;17.92;64.27;97654.81;8250422;28;20270;-70
2021/07/01 03:57:37;;;;;;;0.60;0.50;;;;;;;17.95;64.58;97663.28;8250056;28;20373;-70
2021/07/01 04:01:41;;;;;;;1.63;0.70;;;;;;;17.88;64.37;97662.09;8249989;28;20206;-69
2021/07/01 04:05:45;;;;;;;1.03;0.60;;;;;;;17.66;65.37;97667.31;8250416;28;20372;-69
2021/07/01 04:09:48;;;;;;;2.30;0.80;;;;;;;17.46;66.40;97671.47;8250205;28;20203;-69
2021/07/01 04:13:51;;;;;;;1.47;0.80;;;;;;;17.46;66.10;97667.06;8250384;28;20240;-69
2021/07/01 04:17:54;;;;;;;3.00;0.80;;;;;;;17.53;65.98;97667.41;8249854;28;20236;-69
2021/07/01 04:21:58;;;;;;;2.30;0.80;;;;;;;17.61;66.69;97674.69;8249940;28;20209;-68
2021/07/01 04:26:01;;;;;;;1.47;0.87;;;;;;;17.59;66.52;97678.25;8249884;28;20222;-69
2021/07/01 04:30:05;;;;;;;2.13;1.00;;;;;;;17.35;66.66;97673.13;8250203;28;20210;-69
2021/07/01 04:34:08;;;;;;;2.30;1.00;;;;;;;17.48;66.29;97673.03;8250262;28;20202;-69
2021/07/01 04:38:12;;;;;;;1.77;0.70;;;;;;;17.46;66.49;97674.94;8250032;28;20551;-68
2021/07/01 04:42:15;;;;;;;3.97;1.00;;;;;;;17.51;66.20;97674.56;8250672;28;20392;-69
2021/07/01 04:46:18;;;;;;;0.70;0.70;;;;;;;17.46;66.45;97682.78;8250370;28;20210;-69
2021/07/01 04:50:21;;;;;;;1.33;0.70;;;;;;;17.47;66.53;97683.59;8250177;28;20206;-71
2021/07/01 04:54:25;;;;;;;0.90;0.70;;;;;;;17.52;66.41;97682.31;8250354;28;20206;-69
2021/07/01 04:58:28;;;;;;;0.83;0.60;;;;;;;17.53;66.31;97680.50;8249981;28;20233;-69
2021/07/01 05:02:30;;;;;;;1.60;0.60;;;;;;;17.56;66.87;97688.97;8249138;28;20382;-69
2021/07/01 05:06:33;;;;;;;0.93;0.60;;;;;;;17.70;66.03;97693.13;8249302;28;20230;-69
2021/07/01 05:10:40;;;;;;;2.80;0.60;;;;;;;17.65;66.36;97697.06;8226143;28;20238;-69
2021/07/01 05:14:43;;;;;;;0.93;0.50;;;;;;;17.59;66.35;97693.13;8223448;28;20209;-69
2021/07/01 05:18:46;;;;;;;0.57;0.50;;;;;;;17.65;66.28;97697.06;8223417;29;20206;-69
2021/07/01 05:22:48;;;;;;;8.80;0.80;;;;;;;18.32;68.66;97702.25;8224179;28;20274;-68
2021/07/01 05:26:53;;;;;;;2.60;0.80;;;;;;;18.70;66.60;97697.50;8223562;28;20211;-68
2021/07/01 05:30:55;;;;;;;2.37;0.80;;;;;;;18.61;65.11;97699.06;8223143;28;20211;-68
2021/07/01 05:34:58;;;;;;;0.50;0.40;;;;;;;18.46;63.34;97697.69;8223146;28;20418;-70
2021/07/01 05:39:01;;;;;;;1.17;0.50;;;;;;;18.13;64.60;97692.41;8223319;28;20222;-70
2021/07/01 05:43:07;;;;;;;3.67;0.70;;;;;;;18.33;63.61;97698.69;8199042;29;20226;-70
2021/07/01 05:47:10;;;;;;;0.83;0.60;;;;;;;18.26;63.45;97694.03;8222722;29;20203;-70
2021/07/01 05:51:14;;;;;;;0.73;0.50;;;;;;;18.39;63.43;97700.00;8223177;28;20211;-69
2021/07/01 05:55:17;;;;;;;1.23;0.60;;;;;;;18.26;63.68;97702.75;8222838;28;20248;-69
2021/07/01 05:59:21;;;;;;;1.23;0.60;;;;;;;18.19;64.09;97704.19;8222772;28;20222;-69
2021/07/01 06:03:24;;;;;;;0.60;0.60;;;;;;;18.33;63.88;97706.56;8222480;28;20210;-69
2021/07/01 06:07:27;;;;;;;0.73;0.70;;;;;;;18.28;64.29;97715.75;8222364;28;20227;-69
2021/07/01 06:11:30;;;;;;;2.07;0.90;;;;;;;18.22;64.98;97716.22;8237525;28;20253;-69
2021/07/01 06:15:34;;;;;;;1.43;0.90;;;;;;;18.23;64.06;97713.47;8254179;28;20270;-70
2021/07/01 06:19:38;;;;;;;1.20;1.07;;;;;;;18.35;64.02;97716.91;8253769;28;20210;-70
2021/07/01 06:23:41;;;;;;;1.33;0.97;;;;;;;18.24;64.40;97714.28;8253841;28;20206;-69
2021/07/01 06:27:44;;;;;;;1.77;1.30;;;;;;;18.10;64.72;97733.75;8253648;28;20222;-70
2021/07/01 06:31:48;;;;;;;2.60;1.47;;;;;;;18.16;65.13;97731.47;8253722;28;20225;-70
2021/07/01 06:35:55;;;;;;;3.10;2.03;;;;;;;18.13;63.99;97730.88;8253732;28;20272;-69
2021/07/01 06:39:59;;;;;;;2.30;2.00;;;;;;;18.08;64.78;97736.47;8253446;28;20213;-70
2021/07/01 06:44:02;;;;;;;3.53;2.20;;;;;;;18.16;65.20;97741.97;8253181;28;20202;-70
2021/07/01 06:48:08;;;;;;;3.10;2.40;;;;;;;18.23;64.24;97741.47;8252990;28;20210;-69
2021/07/01 06:52:14;;;;;;;3.53;3.23;;;;;;;18.12;64.19;97748.38;8253219;28;20260;-69
2021/07/01 06:56:16;;;;;;;3.80;3.50;;;;;;;18.12;64.33;97753.63;8252822;28;20230;-70
2021/07/01 07:00:20;;;;;;;4.37;3.80;;;;;;;18.22;64.59;97748.50;8252829;28;20213;-70
2021/07/01 07:04:25;;;;;;;4.80;4.40;;;;;;;18.26;63.98;97751.69;8252053;28;20366;-70
2021/07/01 07:08:28;;;;;;;4.73;4.10;;;;;;;18.31;64.35;97753.00;8249921;28;20292;-69
2021/07/01 07:12:36;;;;;;;7.70;4.10;;;;;;;18.40;63.65;97761.09;8251558;28;20261;-70
2021/07/01 07:16:41;;;;;;;5.07;4.27;;;;;;;18.47;63.87;97760.50;8252168;28;20422;-69
2021/07/01 07:20:46;;;;;;;4.23;3.83;;;;;;;18.72;64.47;97756.72;8252328;28;20458;-69
2021/07/01 07:24:52;;;;;;;7.13;3.87;;;;;;;18.69;63.70;97769.25;8251917;28;20226;-70
2021/07/01 07:28:56;;;;;;;4.53;3.60;;;;;;;18.60;64.12;97762.13;8252030;28;20502;-70
2021/07/01 07:33:03;;;;;;;6.40;3.50;;;;;;;18.68;63.74;97764.97;8251085;28;20203;-70
2021/07/01 07:37:08;;;;;;;4.97;3.17;;;;;;;18.85;64.79;97771.50;8251654;28;20230;-70
2021/07/01 07:41:15;;;;;;;3.97;3.00;;;;;;;18.77;64.59;97764.22;8251589;28;20211;-69
2021/07/01 07:45:17;;;;;;;4.30;2.33;;;;;;;19.18;63.99;97767.91;8252009;28;20508;-68
2021/07/01 07:49:20;;;;;;;2.97;2.20;;;;;;;18.81;63.70;97776.19;8251480;28;20213;-69
2021/07/01 07:53:27;;;;;;;3.67;2.07;;;;;;;18.99;62.27;97768.59;8251605;28;20202;-69
2021/07/01 07:57:30;;;;;;;2.03;1.93;;;;;;;19.37;61.83;97772.47;8251108;28;20246;-68
2021/07/01 08:01:35;;;;;;;2.80;2.10;;;;;;;19.23;61.59;97767.50;8250688;28;20496;-68
2021/07/01 08:05:40;;;;;;;2.83;1.70;;;;;;;19.60;61.67;97773.16;8251205;28;20232;-67
2021/07/01 08:09:44;;;;;;;3.00;1.50;;;;;;;19.73;61.24;97768.56;8251097;28;20414;-67
2021/07/01 08:13:50;;;;;;;1.67;1.50;;;;;;;20.07;60.58;97770.09;8251344;28;20209;-67
2021/07/01 08:17:53;;;;;;;1.90;1.40;;;;;;;20.38;59.77;97772.69;8251348;28;20237;-66
2021/07/01 08:21:56;;;;;;;1.70;1.60;;;;;;;19.89;60.27;97769.88;8250969;28;20210;-67
2021/07/01 08:26:01;;;;;;;1.73;1.30;;;;;;;20.30;59.02;97763.66;8250660;28;20202;-66
2021/07/01 08:30:09;;;;;;;3.73;1.70;;;;;;;20.45;58.37;97772.00;8250837;28;20213;-66
2021/07/01 08:34:12;;;;;;;5.00;1.60;;;;;;;20.28;59.26;97777.94;8251058;28;20206;-67
2021/07/01 08:38:15;;;;;;;4.23;1.37;;;;;;;20.14;59.40;97778.28;8251107;28;20234;-73
2021/07/01 08:42:24;;;;;;;7.50;1.83;;;;;;;20.17;58.99;97778.03;8249778;28;20210;-72
2021/07/01 08:46:27;;;;;;;2.37;1.47;;;;;;;20.77;57.22;97784.16;8256186;28;20206;-72
2021/07/01 08:50:32;;;;;;;3.03;1.47;;;;;;;20.85;56.89;97776.41;8256443;28;20212;-71
2021/07/01 08:54:36;;;;;;;2.03;1.50;;;;;;;21.22;56.19;97773.06;8256191;28;20206;-73
2021/07/01 08:58:45;;;;;;;4.20;1.37;;;;;;;21.60;54.49;97786.38;8256472;28;20379;-71
2021/07/01 09:03:03;;;;;;;3.23;1.30;;;;;;;21.86;54.08;97776.03;8256099;28;20267;-72
2021/07/01 09:07:06;;;;;;;1.87;1.70;;;;;;;21.69;53.94;97792.59;8255691;28;20222;-71
2021/07/01 09:11:11;;;;;;;3.33;1.90;;;;;;;21.56;54.77;97796.34;8255898;28;20548;-74
2021/07/01 09:15:16;;;;;;;3.47;1.70;;;;;;;20.75;56.67;97791.31;8255838;28;20211;-73
2021/07/01 09:19:19;;;;;;;5.47;1.60;;;;;;;20.72;57.30;97802.16;8255372;28;20232;-67
2021/07/01 09:23:22;;;;;;;5.83;1.77;;;;;;;20.64;57.63;97804.63;8255193;28;20255;-68
2021/07/01 09:27:26;;;;;;;3.40;1.70;;;;;;;20.74;57.45;97802.00;8255335;28;20364;-67
2021/07/01 09:31:30;;;;;;;4.70;2.10;;;;;;;20.55;57.07;97808.84;8255405;28;20210;-67
2021/07/01 09:35:35;;;;;;;2.40;2.20;;;;;;;20.32;58.01;97805.59;8255099;28;20226;-67
2021/07/01 09:39:39;;;;;;;4.53;1.93;;;;;;;20.87;57.51;97807.84;8254224;28;20229;-67
2021/07/01 09:43:43;;;;;;;2.00;1.80;;;;;;;20.94;57.54;97808.13;8254558;28;20495;-67
2021/07/01 09:47:52;;;;;;;3.33;1.83;;;;;;;20.86;57.95;97804.38;8254351;28;20213;-74
2021/07/01 09:51:57;;;;;;;8.57;2.13;;;;;;;20.73;58.04;97822.22;8254242;28;20216;-66
2021/07/01 09:56:05;;;;;;;4.33;2.23;;;;;;;20.58;58.08;97821.75;8253719;28;20390;-66
2021/07/01 10:00:09;;;;;;;3.40;1.73;;;;;;;20.82;58.05;97810.06;8254298;28;20417;-67
2021/07/01 10:04:13;;;;;;;2.27;1.80;;;;;;;21.06;57.25;97804.41;8254109;28;20207;-66
2021/07/01 10:08:16;;;;;;;5.97;2.20;;;;;;;21.25;55.93;97811.47;8253121;28;20238;-66
2021/07/01 10:12:21;;;;;;;4.97;2.10;;;;;;;21.48;55.90;97809.41;8226138;28;20231;-67
2021/07/01 10:16:25;;;;;;;2.23;1.70;;;;;;;21.43;56.09;97804.50;8207677;29;20195;-68
2021/07/01 10:20:34;;;;;;;3.83;2.00;;;;;;;21.15;56.34;97808.00;8220135;29;20545;-68
2021/07/01 10:24:49;;;;;;;3.67;2.00;;;;;;;20.99;55.83;97809.38;8218204;29;20197;-68
2021/07/01 10:28:59;;;;;;;2.57;1.90;;;;;;;20.98;56.48;97809.50;8220612;29;20203;-67
2021/07/01 10:33:02;;;;;;;3.17;1.87;;;;;;;20.86;56.96;97812.25;8219412;29;20201;-67
2021/07/01 10:37:15;;;;;;;3.13;2.17;;;;;;;20.80;56.99;97812.81;8221366;29;20234;-70
2021/07/01 10:41:27;;;;;;;2.30;1.50;;;;;;;20.63;55.49;97811.66;8220932;29;20210;-67
2021/07/01 10:45:29;;;;;;;1.33;1.23;;;;;;;21.01;55.12;97801.34;8221713;29;20203;-67
2021/07/01 10:49:34;;;;;;;4.60;1.60;;;;;;;20.87;55.45;97807.84;8221701;29;20207;-67
2021/07/01 10:53:40;;;;;;;3.43;1.50;;;;;;;20.63;55.33;97802.94;8221623;29;20210;-68
2021/07/01 10:57:48;;;;;;;1.90;1.50;;;;;;;20.61;54.83;97802.25;8221190;29;20234;-68
2021/07/01 11:01:54;;;;;;;1.70;1.20;;;;;;;20.53;54.72;97812.59;8221091;29;20210;-69
2021/07/01 11:05:59;;;;;;;1.33;1.10;;;;;;;20.47;54.77;97814.78;8220221;28;20268;-68
2021/07/01 11:10:04;;;;;;;1.40;1.23;;;;;;;20.01;56.07;97816.16;8223533;28;20234;-68
2021/07/01 11:14:09;;;;;;;3.23;1.57;;;;;;;20.21;55.48;97816.22;8228231;28;20207;-67
2021/07/01 11:18:12;;;;;;;3.43;1.57;;;;;;;20.33;55.08;97828.28;8220361;29;20234;-67
2021/07/01 11:22:15;;;;;;;3.80;1.90;;;;;;;20.21;54.82;97826.75;8220507;29;20209;-67
2021/07/01 11:26:29;;;;;;;2.30;1.60;;;;;;;20.48;55.10;97829.59;8220193;29;20226;-68
2021/07/01 11:30:47;;;;;;;5.83;1.50;;;;;;;20.64;54.34;97820.41;8444162;28;20537;-68
2021/07/01 11:34:51;;;;;;;4.97;1.90;;;;;;;20.68;54.69;97834.97;8443877;28;20267;-67
2021/07/01 11:39:05;;;;;;;2.53;1.37;;;;;;;20.76;54.98;97835.09;8443325;28;20391;-67
2021/07/01 11:43:08;;;;;;;2.17;1.73;;;;;;;20.47;56.91;97841.09;8409740;28;20199;-72
2021/07/01 11:47:12;;;;;;;3.90;2.30;;;;;;;19.74;58.85;97837.69;8409287;28;20227;-72
2021/07/01 11:51:15;;;;;;;2.23;2.03;;;;;;;19.70;60.36;97837.09;8409542;28;20231;-71
2021/07/01 11:55:20;;;;;;;2.53;1.80;;;;;;;19.82;60.04;97847.56;8409360;28;20199;-71
2021/07/01 11:59:25;;;;;;;2.17;1.90;;;;;;;19.65;60.78;97848.97;8409191;28;20397;-70
2021/07/01 12:03:31;;;;;;;1.97;1.73;;;;;;;19.49;60.24;97849.38;8408860;28;20199;-71
2021/07/01 12:07:35;;;;;;;2.13;1.93;;;;;;;19.29;61.32;97857.09;8408727;28;20241;-71
2021/07/01 12:12:10;;;;;;;2.57;1.80;;;;;;;19.45;61.32;97855.84;8408854;28;20212;-70
2021/07/01 12:16:15;;;;;;;5.63;1.77;;;;;;;19.68;58.79;97854.75;8413726;28;20205;-72
2021/07/01 12:20:33;;;;;;;3.03;1.73;;;;;;;19.32;59.25;97858.63;8407107;28;20267;-71
2021/07/01 12:24:36;;;;;;;3.07;1.60;;;;;;;19.15;59.28;97854.75;8407383;28;20195;-72
2021/07/01 12:28:40;;;;;;;1.77;1.63;;;;;;;19.11;59.92;97856.84;8407515;28;20382;-72
2021/07/01 12:32:43;;;;;;;2.17;1.50;;;;;;;19.07;59.56;97858.00;8424361;28;20198;-71
2021/07/01 12:36:58;;;;;;;1.70;1.60;;;;;;;19.12;58.85;97855.03;8425363;28;20254;-72
2021/07/01 12:41:02;;;;;;;2.13;1.67;;;;;;;19.10;58.54;97849.91;8406733;28;20200;-70
2021/07/01 12:45:07;;;;;;;1.97;1.50;;;;;;;19.08;58.91;97849.19;8401519;28;20204;-71
2021/07/01 12:49:47;;;;;;;3.83;1.57;;;;;;;19.14;58.76;97846.06;8401827;28;20219;-71
2021/07/01 12:53:51;;;;;;;4.00;1.97;;;;;;;19.67;58.45;97836.53;8401630;28;20191;-71
2021/07/01 12:57:55;;;;;;;2.00;1.80;;;;;;;20.39;55.94;97840.09;8401108;28;20213;-73
2021/07/01 13:02:03;;;;;;;2.37;1.60;;;;;;;20.93;52.74;97841.50;8401021;28;20192;-73
2021/07/01 13:06:06;;;;;;;3.50;1.80;;;;;;;20.63;54.06;97845.03;8400553;28;20542;-71
2021/07/01 13:10:12;;;;;;;2.67;1.53;;;;;;;20.62;53.04;97840.75;8400409;28;20240;-71
2021/07/01 13:14:16;;;;;;;1.67;1.57;;;;;;;20.53;54.24;97846.78;8400763;28;20199;-70
2021/07/01 13:18:22;;;;;;;1.67;1.50;;;;;;;20.49;52.99;97851.50;8406839;28;20199;-71
2021/07/01 13:22:26;;;;;;;1.40;1.20;;;;;;;20.44;53.56;97838.72;8416033;28;20205;-69
2021/07/01 13:26:31;;;;;;;2.13;1.30;;;;;;;20.48;53.13;97853.25;8411485;28;20192;-68
2021/07/01 13:30:35;;;;;;;2.83;1.50;;;;;;;20.35;54.17;97857.91;8399854;28;20540;-69
2021/07/01 13:34:39;;;;;;;1.83;1.50;;;;;;;20.05;54.20;97856.97;8393073;28;20265;-69
2021/07/01 13:38:44;;;;;;;1.57;1.33;;;;;;;20.20;54.09;97864.50;8384111;28;20203;-68
2021/07/01 13:42:49;;;;;;;1.70;1.60;;;;;;;20.26;54.64;97872.72;8399852;28;20197;-69
2021/07/01 13:47:01;;;;;;;3.33;1.70;;;;;;;20.34;54.26;97879.94;8384040;28;20204;-69
2021/07/01 13:51:04;;;;;;;2.70;1.50;;;;;;;20.10;55.04;97867.09;8385389;28;20227;-69
2021/07/01 13:55:19;;;;;;;1.93;1.40;;;;;;;20.55;54.96;97873.78;8415624;28;20195;-69
2021/07/01 13:59:27;;;;;;;1.83;1.50;;;;;;;20.47;54.70;97877.09;8413674;28;20223;-69
2021/07/01 14:03:30;;;;;;;3.00;1.50;;;;;;;20.42;54.40;97876.66;8406091;28;20479;-68
2021/07/01 14:07:33;;;;;;;2.10;1.40;;;;;;;20.42;53.83;97869.59;8408201;28;20212;-68
2021/07/01 14:11:36;;;;;;;1.30;1.20;;;;;;;20.53;53.83;97867.84;8412888;28;20191;-66
2021/07/01 14:15:40;;;;;;;3.33;1.20;;;;;;;20.44;52.43;97874.72;8415158;28;20195;-67
2021/07/01 14:19:43;;;;;;;3.83;1.30;;;;;;;20.15;52.77;97874.59;8414342;28;20213;-66
2021/07/01 14:23:47;;;;;;;1.50;1.33;;;;;;;19.92;53.53;97869.47;8413094;28;20191;-70
2021/07/01 14:28:02;;;;;;;2.73;1.30;;;;;;;19.95;54.04;97878.91;8414805;28;20223;-69
2021/07/01 14:32:07;;;;;;;1.97;1.40;;;;;;;19.93;53.94;97886.91;8414364;28;20199;-71
2021/07/01 14:36:18;;;;;;;3.53;1.60;;;;;;;19.85;53.61;97876.22;8412701;28;20469;-71
2021/07/01 14:40:21;;;;;;;2.40;1.70;;;;;;;19.80;54.39;97881.88;8413639;28;20199;-71
2021/07/01 14:44:29;;;;;;;1.57;1.47;;;;;;;19.63;55.09;97880.59;8410836;28;20202;-72
2021/07/01 14:48:33;;;;;;;2.20;1.70;;;;;;;19.44;55.32;97873.41;8414416;28;20227;-71
2021/07/01 14:52:40;;;;;;;1.90;1.53;;;;;;;19.44;55.97;97875.19;8413822;28;20223;-72
2021/07/01 14:57:00;;;;;;;3.90;1.63;;;;;;;19.45;56.90;97885.56;8414522;28;20210;-71
2021/07/01 15:01:04;;;;;;;4.17;1.70;;;;;;;19.36;56.83;97891.56;8408283;28;20196;-67
2021/07/01 15:05:10;;;;;;;2.43;1.70;;;;;;;19.34;57.18;97896.09;8388549;28;20202;-67
2021/07/01 15:09:14;;;;;;;2.23;1.87;;;;;;;19.33;57.96;97908.41;8391664;28;20560;-68
2021/07/01 15:13:24;;;;;;;3.77;2.17;;;;;;;19.17;59.00;97915.00;8397096;28;20486;-67
2021/07/01 15:17:32;;;;;;;2.40;1.90;;;;;;;19.19;60.31;97921.84;8397093;28;20245;-67
2021/07/01 15:21:36;;;;;;;3.20;2.20;;;;;;;19.06;61.08;97915.91;8396833;28;20204;-67
2021/07/01 15:25:40;;;;;;;2.43;1.80;;;;;;;19.06;61.93;97908.84;8396490;28;20195;-67
2021/07/01 15:29:43;;;;;;;2.50;1.70;;;;;;;18.93;62.84;97913.41;8393204;28;20231;-67
2021/07/01 15:33:47;;;;;;;4.23;1.97;;;;;;;18.89;62.77;97917.22;8379628;28;20408;-66
2021/07/01 15:37:51;;;;;;;4.50;1.90;;;;;;;18.86;63.11;97915.66;8379925;28;20196;-67
2021/07/01 15:41:54;;;;;;;2.17;1.60;;;;;;;18.84;63.36;97914.13;8379818;28;20191;-67
2021/07/01 15:45:58;;;;;;;1.33;1.20;;;;;;;18.78;63.42;97917.22;8380136;28;20192;-67
2021/07/01 15:50:01;;;;;;;2.90;1.60;;;;;;;18.65;63.72;97925.19;8379395;28;20225;-67
2021/07/01 15:54:05;;;;;;;1.77;1.30;;;;;;;18.65;63.60;97927.81;8394299;28;20386;-66
2021/07/01 15:58:09;;;;;;;2.30;1.40;;;;;;;18.58;63.77;97927.44;8396213;28;20207;-67
2021/07/01 16:02:29;;;;;;;2.20;1.50;;;;;;;18.68;63.22;97912.69;8393467;28;20198;-65
2021/07/01 16:06:34;;;;;;;2.40;1.60;;;;;;;18.71;62.69;97916.84;8395181;28;20218;-66
2021/07/01 16:10:39;;;;;;;4.57;1.63;;;;;;;18.73;63.11;97918.41;8403108;28;20314;-67
2021/07/01 16:14:43;;;;;;;3.90;1.57;;;;;;;18.73;62.84;97915.78;8381002;28;20203;-67
2021/07/01 16:18:48;;;;;;;2.60;1.70;;;;;;;18.83;63.04;97918.56;8401651;28;20195;-66
2021/07/01 16:22:51;;;;;;;4.17;1.67;;;;;;;18.89;63.08;97923.31;8409073;28;20279;-66
2021/07/01 16:26:56;;;;;;;1.87;1.40;;;;;;;19.00;62.53;97921.63;8404769;28;20195;-67
2021/07/01 16:30:59;;;;;;;1.53;1.40;;;;;;;18.83;62.22;97922.94;8408568;28;20337;-66
2021/07/01 16:35:02;;;;;;;3.40;1.33;;;;;;;18.86;62.83;97915.66;8406024;28;20193;-67
2021/07/01 16:39:06;;;;;;;1.60;1.50;;;;;;;18.70;62.70;97920.44;8390822;28;20204;-67
2021/07/01 16:43:12;;;;;;;3.23;1.40;;;;;;;18.39;63.55;97930.69;8391341;28;20192;-67
2021/07/01 16:47:15;;;;;;;2.00;1.30;;;;;;;18.20;64.13;97927.78;8399424;28;20191;-67
2021/07/01 16:51:21;;;;;;;3.20;1.27;;;;;;;18.23;64.34;97932.81;8398358;28;20632;-67
2021/07/01 16:55:28;;;;;;;2.07;1.40;;;;;;;18.26;64.69;97932.56;8399735;28;20206;-67
2021/07/01 16:59:33;;;;;;;3.40;1.50;;;;;;;18.49;63.30;97942.13;8401314;28;20202;-67
2021/07/01 17:03:36;;;;;;;2.53;1.60;;;;;;;18.33;63.63;97939.84;8401534;28;20203;-67
2021/07/01 17:07:40;;;;;;;4.17;1.70;;;;;;;18.31;63.80;97938.28;8403332;28;20211;-66
2021/07/01 17:11:43;;;;;;;3.07;1.70;;;;;;;18.62;63.44;97943.78;8418300;28;20405;-67
2021/07/01 17:15:47;;;;;;;3.53;1.83;;;;;;;18.37;63.37;97940.44;8418166;28;20203;-66
2021/07/01 17:19:54;;;;;;;2.43;1.80;;;;;;;18.25;63.74;97941.38;8417725;28;20203;-66
2021/07/01 17:23:58;;;;;;;5.10;2.07;;;;;;;18.41;63.21;97944.50;8418074;28;20199;-66
2021/07/01 17:28:04;;;;;;;2.07;1.87;;;;;;;18.47;63.32;97938.78;8417529;28;20235;-66
2021/07/01 17:32:09;;;;;;;3.80;2.03;;;;;;;18.51;63.08;97948.09;8417775;28;20231;-66
2021/07/01 17:36:12;;;;;;;2.73;1.93;;;;;;;18.59;62.92;97937.00;8417539;28;20221;-67
2021/07/01 17:40:16;;;;;;;2.80;2.10;;;;;;;18.56;63.86;97951.19;8417353;28;20226;-66
2021/07/01 17:44:20;;;;;;;2.17;1.97;;;;;;;18.59;63.10;97949.28;8417291;28;20346;-66
2021/07/01 17:48:24;;;;;;;5.17;2.03;;;;;;;18.63;63.04;97948.09;8416839;28;20199;-66
2021/07/01 17:52:27;;;;;;;3.20;2.00;;;;;;;18.62;63.62;97955.13;8416992;28;20249;-66
2021/07/01 17:56:30;;;;;;;5.53;1.93;;;;;;;18.27;64.16;97952.59;8416605;28;20451;-66
2021/07/01 18:00:34;;;;;;;3.57;1.70;;;;;;;18.20;64.70;97952.22;8416702;28;20203;-66
2021/07/01 18:04:38;;;;;;;4.87;2.00;;;;;;;18.11;64.16;97964.22;8396323;28;20507;-66
2021/07/01 18:08:41;;;;;;;3.10;2.60;;;;;;;18.00;64.20;97964.19;8383755;28;20422;-65
2021/07/01 18:12:44;;;;;;;3.77;2.60;;;;;;;18.02;64.26;97962.28;8382564;28;20223;-65
2021/07/01 18:16:47;;;;;;;3.83;2.27;;;;;;;18.07;64.45;97968.03;8382950;28;20211;-65
2021/07/01 18:20:51;;;;;;;3.47;2.30;;;;;;;18.03;64.16;97963.97;8392984;28;20245;-66
2021/07/01 18:24:54;;;;;;;4.63;2.80;;;;;;;17.93;64.12;97966.47;8412573;28;20199;-68
2021/07/01 18:28:57;;;;;;;4.77;2.47;;;;;;;17.90;64.36;97960.59;8415470;28;20537;-70
2021/07/01 18:32:59;;;;;;;6.80;2.83;;;;;;;17.83;64.94;97962.78;8415250;28;20278;-70
2021/07/01 18:37:04;;;;;;;3.00;2.60;;;;;;;17.79;64.63;97962.19;8415046;28;20214;-69
2021/07/01 18:41:07;;;;;;;4.83;2.87;;;;;;;17.81;65.01;97967.31;8415028;28;20203;-69
2021/07/01 18:45:11;;;;;;;4.93;2.73;;;;;;;17.62;65.34;97973.06;8414854;28;20215;-69
2021/07/01 18:49:31;;;;;;;5.47;2.50;;;;;;;17.68;64.77;97974.41;8400161;28;20285;-68
2021/07/01 18:53:36;;;;;;;4.93;3.00;;;;;;;17.62;64.78;97973.06;8381678;28;20385;-69
2021/07/01 18:57:39;;;;;;;3.00;2.63;;;;;;;17.82;64.39;97976.84;8381542;28;20419;-68
2021/07/01 19:01:42;;;;;;;6.53;2.77;;;;;;;17.64;64.89;97976.41;8381409;28;20207;-68
2021/07/01 19:05:47;;;;;;;5.37;3.00;;;;;;;17.74;64.88;97974.81;8381925;28;20243;-68
2021/07/01 19:09:51;;;;;;;4.87;2.90;;;;;;;17.80;64.80;97978.75;8381860;28;20228;-68
2021/07/01 19:13:59;;;;;;;3.60;2.73;;;;;;;17.86;64.85;97985.34;8399751;28;20206;-69